Time;durP1;ratioP1;P1;durP2;ratioP2;P2;SDS_P1;SDS_P2;PMS_P1;PMS_P2;Temp;Humidity;BMP_temperature;BMP_pressure;BME280_temperature;BME280_humidity;BME280_pressure;Samples;Min_cycle;Max_cycle;Signal;HPM_P1;HPM_P2
2023/02/03 00:00:51;;;;;;;;;;;7.80;1.00;;;;;;5011038;28;19963;-76
2023/02/03 00:03:18;;;;;;;;;;;7.80;1.00;;;;;;5013224;28;19960;-76
2023/02/03 00:05:44;;;;;;;;;;;7.80;1.00;;;;;;5011387;28;19916;-75
2023/02/03 00:08:10;;;;;;;;;;;7.70;1.00;;;;;;5011617;28;19909;-76
2023/02/03 00:10:37;;;;;;;;;;;7.70;1.00;;;;;;5009558;28;19913;-76
2023/02/03 00:13:03;;;;;;;;;;;7.70;1.00;;;;;;5012316;28;19916;-76
2023/02/03 00:15:29;;;;;;;;;;;7.70;1.00;;;;;;5012907;28;19956;-76
2023/02/03 00:17:55;;;;;;;;;;;7.70;1.00;;;;;;5009101;28;19922;-75
2023/02/03 00:20:21;;;;;;;;;;;7.70;1.00;;;;;;5012195;28;19932;-76
2023/02/03 00:22:47;;;;;;;;;;;7.80;1.00;;;;;;5012996;28;19918;-76
2023/02/03 00:25:13;;;;;;;;;;;7.70;1.00;;;;;;5009602;28;19909;-76
2023/02/03 00:27:39;;;;;;;;;;;7.80;1.00;;;;;;5011779;28;19912;-76
2023/02/03 00:30:05;;;;;;;;;;;7.80;1.00;;;;;;5007374;28;20269;-76
2023/02/03 00:32:31;;;;;;;;;;;7.80;1.00;;;;;;5013033;28;19906;-76
2023/02/03 00:34:57;;;;;;;;;;;7.80;1.00;;;;;;5012347;28;20381;-75
2023/02/03 00:37:23;;;;;;;;;;;7.80;1.00;;;;;;5009023;28;19911;-76
2023/02/03 00:39:50;;;;;;;;;;;7.80;1.00;;;;;;5010698;28;19928;-75
2023/02/03 00:42:16;;;;;;;;;;;7.70;1.00;;;;;;5007907;28;20011;-76
2023/02/03 00:44:43;;;;;;;;;;;7.70;1.00;;;;;;5021587;28;19909;-76
2023/02/03 00:47:09;;;;;;;;;;;7.70;1.00;;;;;;5009800;28;20243;-76
2023/02/03 00:49:35;;;;;;;;;;;7.70;1.00;;;;;;5010109;28;20386;-76
2023/02/03 00:52:01;;;;;;;;;;;7.70;1.00;;;;;;5019393;28;19948;-76
2023/02/03 00:54:27;;;;;;;;;;;7.70;1.00;;;;;;5006297;28;19916;-76
2023/02/03 00:56:52;;;;;;;;;;;7.80;1.00;;;;;;5011141;28;20290;-75
2023/02/03 00:59:18;;;;;;;;;;;7.80;1.00;;;;;;5008251;28;19949;-76
2023/02/03 01:01:45;;;;;;;;;;;7.80;1.00;;;;;;5011906;28;20149;-76
2023/02/03 01:04:11;;;;;;;;;;;7.80;1.00;;;;;;5010563;28;19917;-75
2023/02/03 01:06:39;;;;;;;;;;;7.80;1.00;;;;;;5010433;28;19913;-75
2023/02/03 01:09:05;;;;;;;;;;;7.80;1.00;;;;;;5010807;28;20456;-76
2023/02/03 01:11:33;;;;;;;;;;;7.80;1.00;;;;;;5008768;28;19905;-75
2023/02/03 01:14:00;;;;;;;;;;;7.80;1.00;;;;;;5010898;28;20343;-75
2023/02/03 01:16:28;;;;;;;;;;;7.80;1.00;;;;;;5008632;28;19905;-76
2023/02/03 01:18:55;;;;;;;;;;;7.90;1.00;;;;;;5008752;28;19917;-75
2023/02/03 01:21:25;;;;;;;;;;;7.90;1.00;;;;;;5010267;28;19954;-74
2023/02/03 01:23:52;;;;;;;;;;;7.90;1.00;;;;;;5009652;28;19914;-75
2023/02/03 01:26:19;;;;;;;;;;;7.90;1.00;;;;;;5013328;28;19912;-75
2023/02/03 01:28:53;;;;;;;;;;;7.80;1.00;;;;;;5011586;28;20264;-74
2023/02/03 01:31:30;;;;;;;;;;;7.80;1.00;;;;;;5006031;28;19917;-75
2023/02/03 01:33:56;;;;;;;;;;;7.70;1.00;;;;;;5009845;28;19920;-77
2023/02/03 01:36:23;;;;;;;;;;;7.70;1.00;;;;;;5005324;28;19910;-76
2023/02/03 01:38:50;;;;;;;;;;;7.80;1.00;;;;;;5010822;28;19917;-76
2023/02/03 01:41:17;;;;;;;;;;;7.80;1.00;;;;;;5012131;28;19922;-75
2023/02/03 01:43:48;;;;;;;;;;;7.80;1.00;;;;;;5008827;28;19917;-76
2023/02/03 01:46:29;;;;;;;;;;;7.80;1.00;;;;;;5012381;28;19917;-75
2023/02/03 01:49:19;;;;;;;;;;;7.80;1.00;;;;;;5007773;28;20331;-75
2023/02/03 01:51:45;;;;;;;;;;;7.80;1.00;;;;;;5005168;28;19909;-76
2023/02/03 01:54:16;;;;;;;;;;;7.80;1.00;;;;;;5008484;28;19909;-76
2023/02/03 01:56:44;;;;;;;;;;;7.70;1.00;;;;;;5010438;28;19917;-76
2023/02/03 01:59:11;;;;;;;;;;;7.70;1.00;;;;;;5005117;28;19916;-76
2023/02/03 02:01:37;;;;;;;;;;;7.70;1.00;;;;;;4999081;28;20359;-77
2023/02/03 02:04:03;;;;;;;;;;;7.70;1.00;;;;;;5016604;28;19909;-76
2023/02/03 02:06:29;;;;;;;;;;;7.70;1.00;;;;;;5025537;28;19905;-76
2023/02/03 02:08:58;;;;;;;;;;;7.70;1.00;;;;;;5009127;28;20011;-76
2023/02/03 02:11:24;;;;;;;;;;;7.70;1.00;;;;;;5010995;28;19909;-76
2023/02/03 02:13:50;;;;;;;;;;;7.70;1.00;;;;;;5008672;28;19906;-76
2023/02/03 02:16:21;;;;;;;;;;;7.70;1.00;;;;;;5014576;28;19917;-75
2023/02/03 02:18:47;;;;;;;;;;;7.70;1.00;;;;;;5014383;28;19920;-76
2023/02/03 02:21:21;;;;;;;;;;;7.70;1.00;;;;;;5020511;28;19917;-77
2023/02/03 02:23:47;;;;;;;;;;;7.70;1.00;;;;;;5014434;28;19920;-76
2023/02/03 02:26:16;;;;;;;;;;;7.80;1.00;;;;;;5005310;28;20304;-76
2023/02/03 02:28:54;;;;;;;;;;;7.70;1.00;;;;;;5011817;28;19913;-76
2023/02/03 02:31:39;;;;;;;;;;;7.70;1.00;;;;;;5014332;28;19916;-76
2023/02/03 02:34:05;;;;;;;;;;;7.70;1.00;;;;;;5012820;28;19913;-76
2023/02/03 02:36:41;;;;;;;;;;;7.70;1.00;;;;;;5015062;28;19909;-76
2023/02/03 02:39:07;;;;;;;;;;;7.70;1.00;;;;;;5011342;28;20339;-76
2023/02/03 02:41:36;;;;;;;;;;;7.70;1.00;;;;;;5016265;28;19940;-77
2023/02/03 02:44:06;;;;;;;;;;;7.70;1.00;;;;;;5012763;28;19910;-76
2023/02/03 02:46:38;;;;;;;;;;;7.70;1.00;;;;;;5012249;28;19909;-77
2023/02/03 02:49:12;;;;;;;;;;;7.70;1.00;;;;;;5010956;28;19910;-77
2023/02/03 02:51:38;;;;;;;;;;;7.70;1.00;;;;;;5009154;28;19909;-78
2023/02/03 02:54:06;;;;;;;;;;;7.70;1.00;;;;;;5013359;28;19920;-79
2023/02/03 02:56:33;;;;;;;;;;;7.70;1.00;;;;;;5009385;28;19920;-79
2023/02/03 02:59:01;;;;;;;;;;;7.60;1.00;;;;;;5014002;28;19924;-77
2023/02/03 03:01:27;;;;;;;;;;;7.60;1.00;;;;;;5000542;28;20279;-77
2023/02/03 03:03:53;;;;;;;;;;;7.60;1.00;;;;;;5011831;28;19916;-78
2023/02/03 03:06:22;;;;;;;;;;;7.60;1.00;;;;;;5013660;28;19916;-78
2023/02/03 03:08:54;;;;;;;;;;;7.60;1.00;;;;;;5007241;28;19925;-77
2023/02/03 03:11:20;;;;;;;;;;;7.60;1.00;;;;;;5008130;28;19909;-77
2023/02/03 03:13:49;;;;;;;;;;;7.60;1.00;;;;;;5003868;28;20248;-78
2023/02/03 03:16:17;;;;;;;;;;;7.70;1.00;;;;;;5012961;28;19913;-77
2023/02/03 03:18:45;;;;;;;;;;;7.60;1.00;;;;;;5011953;28;19910;-78
2023/02/03 03:21:14;;;;;;;;;;;7.60;1.00;;;;;;5013010;28;19940;-78
2023/02/03 03:23:43;;;;;;;;;;;7.60;1.00;;;;;;5013449;28;19914;-78
2023/02/03 03:26:39;;;;;;;;;;;7.60;1.00;;;;;;5012548;28;19909;-78
2023/02/03 03:29:09;;;;;;;;;;;7.60;1.00;;;;;;5001861;28;19909;-78
2023/02/03 03:31:35;;;;;;;;;;;7.70;1.00;;;;;;5009995;28;19910;-76
2023/02/03 03:34:01;;;;;;;;;;;7.70;1.00;;;;;;5015515;28;19912;-79
2023/02/03 03:36:32;;;;;;;;;;;7.80;1.00;;;;;;5012166;28;19909;-75
2023/02/03 03:39:04;;;;;;;;;;;7.90;1.00;;;;;;5010530;28;20362;-75
2023/02/03 03:41:48;;;;;;;;;;;7.90;1.00;;;;;;5013044;28;19913;-74
2023/02/03 03:44:15;;;;;;;;;;;8.00;1.00;;;;;;5009664;28;19921;-76
2023/02/03 03:46:54;;;;;;;;;;;8.00;1.00;;;;;;5009263;28;19913;-75
2023/02/03 03:49:21;;;;;;;;;;;8.00;1.00;;;;;;5009521;28;19913;-76
2023/02/03 03:51:50;;;;;;;;;;;8.00;1.00;;;;;;5007694;28;19910;-75
2023/02/03 03:54:17;;;;;;;;;;;8.00;1.00;;;;;;5010951;28;19917;-75
2023/02/03 03:56:43;;;;;;;;;;;8.00;1.00;;;;;;5009906;28;20255;-75
2023/02/03 03:59:10;;;;;;;;;;;8.00;1.00;;;;;;5008509;28;19934;-76
2023/02/03 04:01:37;;;;;;;;;;;8.00;1.00;;;;;;5007792;28;20311;-76
2023/02/03 04:04:05;;;;;;;;;;;8.10;1.00;;;;;;5007455;28;20278;-76
2023/02/03 04:06:31;;;;;;;;;;;8.10;1.00;;;;;;5014535;28;19905;-75
2023/02/03 04:08:57;;;;;;;;;;;8.10;1.00;;;;;;5008728;28;19910;-77
2023/02/03 04:14:08;;;;;;;;;;;8.10;1.00;;;;;;5012108;28;20274;-77
2023/02/03 04:16:34;;;;;;;;;;;8.10;1.00;;;;;;5011498;28;20004;-80
2023/02/03 04:19:00;;;;;;;;;;;8.10;1.00;;;;;;5009491;28;20386;-78
2023/02/03 04:21:26;;;;;;;;;;;8.10;1.00;;;;;;5010298;28;20011;-76
2023/02/03 04:23:52;;;;;;;;;;;8.10;1.00;;;;;;5015542;28;19937;-78
2023/02/03 04:26:18;;;;;;;;;;;8.10;1.00;;;;;;5011849;28;20381;-76
2023/02/03 04:28:44;;;;;;;;;;;8.10;1.00;;;;;;5003233;28;19959;-76
2023/02/03 04:31:10;;;;;;;;;;;8.10;1.00;;;;;;5016579;28;19909;-78
2023/02/03 04:33:36;;;;;;;;;;;8.10;1.00;;;;;;5010416;28;19996;-77
2023/02/03 04:36:02;;;;;;;;;;;8.20;1.00;;;;;;5011662;28;20363;-76
2023/02/03 04:38:28;;;;;;;;;;;8.20;1.00;;;;;;5010051;28;19909;-76
2023/02/03 04:40:54;;;;;;;;;;;8.20;1.00;;;;;;5009007;28;19956;-76
2023/02/03 04:43:20;;;;;;;;;;;8.20;1.00;;;;;;5011709;28;20390;-76
2023/02/03 04:45:45;;;;;;;;;;;8.20;1.00;;;;;;5012861;28;19913;-77
2023/02/03 04:48:11;;;;;;;;;;;8.20;1.00;;;;;;5013657;28;19910;-76
2023/02/03 04:50:37;;;;;;;;;;;8.20;1.00;;;;;;5009674;28;19906;-76
2023/02/03 04:53:03;;;;;;;;;;;8.20;1.00;;;;;;5011222;28;20458;-77
2023/02/03 04:55:29;;;;;;;;;;;8.20;1.00;;;;;;5011819;28;19948;-76
2023/02/03 04:57:56;;;;;;;;;;;8.20;1.00;;;;;;5010582;28;19949;-75
2023/02/03 05:00:22;;;;;;;;;;;8.20;1.00;;;;;;5011488;28;19937;-76
2023/02/03 05:02:48;;;;;;;;;;;8.20;1.00;;;;;;5010874;28;19909;-77
2023/02/03 05:05:14;;;;;;;;;;;8.20;1.00;;;;;;5013752;28;19920;-81
2023/02/03 05:07:40;;;;;;;;;;;8.30;1.00;;;;;;5009588;28;19910;-78
2023/02/03 05:10:06;;;;;;;;;;;8.30;1.00;;;;;;5010440;28;19952;-78
2023/02/03 05:12:32;;;;;;;;;;;8.20;1.00;;;;;;5007649;28;20279;-76
2023/02/03 05:14:58;;;;;;;;;;;8.20;1.00;;;;;;5009947;28;19913;-76
2023/02/03 05:17:24;;;;;;;;;;;8.20;1.00;;;;;;5012242;28;20322;-75
2023/02/03 05:19:50;;;;;;;;;;;8.30;1.00;;;;;;5007376;28;20278;-76
2023/02/03 05:22:16;;;;;;;;;;;8.30;1.00;;;;;;5007974;28;19921;-75
2023/02/03 05:24:42;;;;;;;;;;;8.30;1.00;;;;;;5010223;28;19992;-71
2023/02/03 05:27:08;;;;;;;;;;;8.30;1.00;;;;;;5010529;28;19909;-75
2023/02/03 05:29:34;;;;;;;;;;;8.20;1.00;;;;;;5008125;28;20406;-74
2023/02/03 05:32:00;;;;;;;;;;;8.30;1.00;;;;;;5007507;28;19909;-74
2023/02/03 05:34:26;;;;;;;;;;;8.20;1.00;;;;;;5012025;28;20028;-74
2023/02/03 05:36:51;;;;;;;;;;;8.20;1.00;;;;;;5008562;28;19906;-74
2023/02/03 05:39:17;;;;;;;;;;;8.10;1.00;;;;;;5015211;28;19910;-74
2023/02/03 05:41:52;;;;;;;;;;;8.10;1.00;;;;;;5008245;28;19916;-74
2023/02/03 05:44:22;;;;;;;;;;;8.00;1.00;;;;;;5007974;28;19914;-73
2023/02/03 05:46:49;;;;;;;;;;;8.00;1.00;;;;;;5010292;28;20298;-73
2023/02/03 05:49:15;;;;;;;;;;;8.00;1.00;;;;;;5009417;28;19921;-74
2023/02/03 05:51:41;;;;;;;;;;;8.00;1.00;;;;;;5009266;28;20256;-74
2023/02/03 05:54:07;;;;;;;;;;;8.10;1.00;;;;;;5010505;28;19916;-74
2023/02/03 05:56:33;;;;;;;;;;;8.10;1.00;;;;;;5009947;28;19909;-74
2023/02/03 05:58:59;;;;;;;;;;;8.00;1.00;;;;;;5009742;28;19981;-73
2023/02/03 06:01:25;;;;;;;;;;;8.00;1.00;;;;;;5002290;28;20293;-74
2023/02/03 06:03:51;;;;;;;;;;;8.00;1.00;;;;;;5007662;28;19916;-74
2023/02/03 06:06:17;;;;;;;;;;;8.00;1.00;;;;;;5012589;28;19909;-73
2023/02/03 06:08:44;;;;;;;;;;;8.00;1.00;;;;;;5006126;28;20282;-74
2023/02/03 06:11:10;;;;;;;;;;;8.00;1.00;;;;;;5010983;28;19909;-74
2023/02/03 06:13:36;;;;;;;;;;;7.90;1.00;;;;;;5009624;28;19914;-73
2023/02/03 06:16:02;;;;;;;;;;;8.00;1.00;;;;;;5009405;28;19932;-75
2023/02/03 06:18:28;;;;;;;;;;;8.00;1.00;;;;;;5010361;28;19909;-75
2023/02/03 06:20:54;;;;;;;;;;;8.00;1.00;;;;;;4999833;28;19925;-74
2023/02/03 06:23:20;;;;;;;;;;;8.00;1.00;;;;;;5009863;28;19910;-75
2023/02/03 06:25:47;;;;;;;;;;;8.00;1.00;;;;;;5007318;28;20362;-75
2023/02/03 06:28:13;;;;;;;;;;;8.10;1.00;;;;;;5011654;28;19910;-75
2023/02/03 06:30:39;;;;;;;;;;;8.00;1.00;;;;;;5008792;28;19964;-75
2023/02/03 06:33:05;;;;;;;;;;;8.10;1.00;;;;;;5010508;28;19905;-75
2023/02/03 06:35:31;;;;;;;;;;;8.10;1.00;;;;;;5000842;28;19910;-77
2023/02/03 06:37:57;;;;;;;;;;;8.10;1.00;;;;;;5010284;28;19909;-75
2023/02/03 06:40:23;;;;;;;;;;;8.20;1.00;;;;;;5008929;28;19920;-77
2023/02/03 06:42:52;;;;;;;;;;;8.30;1.00;;;;;;5015311;28;19909;-79
2023/02/03 06:45:18;;;;;;;;;;;8.30;1.00;;;;;;5007807;28;19910;-75
2023/02/03 06:47:44;;;;;;;;;;;8.30;1.00;;;;;;5012211;28;20310;-76
2023/02/03 06:50:11;;;;;;;;;;;8.30;1.00;;;;;;5010695;28;19910;-76
2023/02/03 06:52:37;;;;;;;;;;;8.40;1.00;;;;;;5010089;28;19910;-75
2023/02/03 06:55:04;;;;;;;;;;;8.30;1.00;;;;;;5005868;28;19920;-76
2023/02/03 06:57:30;;;;;;;;;;;8.40;1.00;;;;;;5012936;28;19924;-79
2023/02/03 06:59:56;;;;;;;;;;;8.30;1.00;;;;;;5010265;28;19920;-73
2023/02/03 07:02:22;;;;;;;;;;;8.40;1.00;;;;;;5010336;28;20366;-72
2023/02/03 07:04:48;;;;;;;;;;;8.30;1.00;;;;;;5013135;28;19916;-77
2023/02/03 07:07:17;;;;;;;;;;;8.30;1.00;;;;;;5011601;28;20365;-76
2023/02/03 07:09:44;;;;;;;;;;;8.30;1.00;;;;;;5011153;28;20004;-74
2023/02/03 07:12:10;;;;;;;;;;;8.20;1.00;;;;;;5011427;28;19916;-74
2023/02/03 07:14:38;;;;;;;;;;;8.20;1.00;;;;;;5014284;28;20461;-74
2023/02/03 07:17:04;;;;;;;;;;;8.10;1.00;;;;;;5009346;28;19918;-73
2023/02/03 07:19:30;;;;;;;;;;;8.10;1.00;;;;;;5023490;28;19909;-73
2023/02/03 07:21:56;;;;;;;;;;;8.00;1.00;;;;;;5008431;28;20028;-73
2023/02/03 07:24:22;;;;;;;;;;;7.90;1.00;;;;;;5013101;28;19914;-73
2023/02/03 07:26:48;;;;;;;;;;;7.90;1.00;;;;;;5012247;28;19910;-73
2023/02/03 07:29:14;;;;;;;;;;;7.90;1.00;;;;;;5008320;28;19963;-73
2023/02/03 07:31:40;;;;;;;;;;;7.90;1.00;;;;;;5015823;28;19913;-72
2023/02/03 07:34:06;;;;;;;;;;;7.90;1.00;;;;;;4994834;28;20689;-73
2023/02/03 07:36:32;;;;;;;;;;;7.90;1.00;;;;;;5007483;28;20027;-73
2023/02/03 07:38:58;;;;;;;;;;;7.90;1.00;;;;;;5010107;28;19916;-73
2023/02/03 07:41:24;;;;;;;;;;;7.90;1.00;;;;;;5013093;28;20383;-73
2023/02/03 07:43:50;;;;;;;;;;;7.90;1.00;;;;;;5009041;28;20000;-73
2023/02/03 07:46:16;;;;;;;;;;;8.00;1.00;;;;;;5010742;28;19956;-73
2023/02/03 07:48:42;;;;;;;;;;;8.00;1.00;;;;;;5012115;28;19909;-73
2023/02/03 07:51:08;;;;;;;;;;;8.10;1.00;;;;;;5010902;28;20285;-72
2023/02/03 07:53:34;;;;;;;;;;;8.00;1.00;;;;;;5012003;28;19914;-73
2023/02/03 07:56:00;;;;;;;;;;;8.10;1.00;;;;;;5003827;28;19915;-74
2023/02/03 07:58:27;;;;;;;;;;;8.20;1.00;;;;;;5012529;28;19909;-72
2023/02/03 08:00:53;;;;;;;;;;;8.20;1.00;;;;;;5008381;28;19917;-76
2023/02/03 08:03:19;;;;;;;;;;;8.20;1.00;;;;;;5006822;28;20003;-75
2023/02/03 08:05:45;;;;;;;;;;;8.20;1.00;;;;;;5009522;28;19909;-75
2023/02/03 08:08:11;;;;;;;;;;;8.20;1.00;;;;;;5011484;28;19910;-73
2023/02/03 08:10:37;;;;;;;;;;;8.30;1.00;;;;;;5022863;28;19909;-79
2023/02/03 08:13:03;;;;;;;;;;;8.30;1.00;;;;;;5012021;28;20286;-76
2023/02/03 08:15:29;;;;;;;;;;;8.40;1.00;;;;;;5011481;28;19954;-77
2023/02/03 08:17:55;;;;;;;;;;;8.40;1.00;;;;;;5012135;28;19909;-76
2023/02/03 08:20:22;;;;;;;;;;;8.40;1.00;;;;;;5008974;28;19916;-75
2023/02/03 08:22:48;;;;;;;;;;;8.30;1.00;;;;;;5010824;28;20294;-76
2023/02/03 08:25:13;;;;;;;;;;;8.40;1.00;;;;;;5005750;28;19958;-77
2023/02/03 08:27:40;;;;;;;;;;;8.40;1.00;;;;;;5009698;28;19924;-75
2023/02/03 08:30:07;;;;;;;;;;;8.30;1.00;;;;;;5015736;28;19984;-74
2023/02/03 08:32:33;;;;;;;;;;;8.40;1.00;;;;;;5011174;28;19909;-73
2023/02/03 08:34:59;;;;;;;;;;;8.40;1.00;;;;;;5011906;28;19915;-75
2023/02/03 08:37:25;;;;;;;;;;;8.40;1.00;;;;;;5015951;28;19909;-73
2023/02/03 08:39:51;;;;;;;;;;;8.40;1.00;;;;;;5012474;28;19924;-73
2023/02/03 08:42:17;;;;;;;;;;;8.50;99.90;;;;;;5012655;28;19939;-75
2023/02/03 08:44:43;;;;;;;;;;;8.50;99.90;;;;;;5012707;28;19968;-74
2023/02/03 08:47:10;;;;;;;;;;;8.50;99.90;;;;;;5008370;28;19913;-75
2023/02/03 08:49:38;;;;;;;;;;;8.60;99.90;;;;;;5010379;28;20248;-73
2023/02/03 08:52:05;;;;;;;;;;;8.60;99.90;;;;;;5012694;28;19917;-75
2023/02/03 08:54:31;;;;;;;;;;;8.70;99.90;;;;;;5010202;28;19918;-74
2023/02/03 08:56:57;;;;;;;;;;;8.60;99.90;;;;;;5008829;28;19924;-76
2023/02/03 08:59:23;;;;;;;;;;;8.70;99.90;;;;;;5010757;28;19906;-76
2023/02/03 09:01:50;;;;;;;;;;;8.60;99.90;;;;;;5010343;28;19918;-73
2023/02/03 09:04:18;;;;;;;;;;;8.70;99.90;;;;;;5010562;28;19914;-73
2023/02/03 09:06:46;;;;;;;;;;;8.70;99.90;;;;;;5008045;28;19916;-73
2023/02/03 09:09:16;;;;;;;;;;;8.70;99.90;;;;;;5008970;28;19909;-75
2023/02/03 09:11:42;;;;;;;;;;;8.70;99.90;;;;;;5008593;28;19906;-76
2023/02/03 09:14:08;;;;;;;;;;;8.70;99.90;;;;;;5009586;28;19913;-73
2023/02/03 09:16:34;;;;;;;;;;;8.70;99.90;;;;;;5008262;28;19910;-74
2023/02/03 09:19:01;;;;;;;;;;;8.70;99.90;;;;;;5006520;28;20459;-74
2023/02/03 09:21:26;;;;;;;;;;;8.70;99.90;;;;;;5007416;28;19925;-73
2023/02/03 09:23:52;;;;;;;;;;;8.80;99.90;;;;;;5006299;28;20375;-75
2023/02/03 09:26:18;;;;;;;;;;;8.80;99.90;;;;;;5007660;28;19910;-74
2023/02/03 09:28:44;;;;;;;;;;;8.80;99.90;;;;;;5010278;28;19909;-74
2023/02/03 09:31:12;;;;;;;;;;;8.80;99.90;;;;;;5007559;28;19909;-74
2023/02/03 09:33:39;;;;;;;;;;;8.90;99.90;;;;;;5009810;28;19932;-75
2023/02/03 09:36:06;;;;;;;;;;;8.90;99.90;;;;;;5009264;28;19906;-75
2023/02/03 09:38:32;;;;;;;;;;;8.90;99.90;;;;;;5009645;28;19909;-75
2023/02/03 09:41:06;;;;;;;;;;;8.90;99.90;;;;;;5006533;28;19929;-75
2023/02/03 09:43:39;;;;;;;;;;;9.00;99.90;;;;;;4999519;28;19940;-74
2023/02/03 09:46:25;;;;;;;;;;;9.00;99.90;;;;;;4996239;28;20370;-75
2023/02/03 09:49:11;;;;;;;;;;;9.00;99.90;;;;;;5004048;28;19913;-75
2023/02/03 09:51:52;;;;;;;;;;;9.10;99.90;;;;;;5006937;28;19917;-73
2023/02/03 09:54:25;;;;;;;;;;;9.10;99.90;;;;;;5006848;28;19924;-74
2023/02/03 09:56:54;;;;;;;;;;;9.10;99.90;;;;;;5006513;28;19917;-71
2023/02/03 09:59:21;;;;;;;;;;;9.20;99.90;;;;;;5010904;28;19909;-72
2023/02/03 10:01:53;;;;;;;;;;;9.20;99.90;;;;;;5005499;28;19917;-77
2023/02/03 10:04:27;;;;;;;;;;;9.30;99.90;;;;;;5003101;28;19910;-79
2023/02/03 10:07:24;;;;;;;;;;;9.30;99.90;;;;;;5004924;28;19916;-78
2023/02/03 10:09:53;;;;;;;;;;;9.40;99.90;;;;;;5008443;28;19920;-80
2023/02/03 10:12:19;;;;;;;;;;;9.40;99.90;;;;;;4988471;28;20389;-80
2023/02/03 10:15:14;;;;;;;;;;;9.40;99.90;;;;;;5014474;28;19996;-82
2023/02/03 10:17:41;;;;;;;;;;;9.30;99.90;;;;;;5009903;28;20303;-77
2023/02/03 10:20:17;;;;;;;;;;;9.30;99.90;;;;;;5005756;28;19917;-76
2023/02/03 10:22:55;;;;;;;;;;;9.20;99.90;;;;;;5006659;28;19917;-76
2023/02/03 10:25:23;;;;;;;;;;;9.30;99.90;;;;;;5004408;28;19917;-74
2023/02/03 10:27:54;;;;;;;;;;;9.30;99.90;;;;;;5003462;28;19913;-77
2023/02/03 10:30:22;;;;;;;;;;;9.30;99.90;;;;;;5007599;28;19917;-76
2023/02/03 10:32:49;;;;;;;;;;;9.40;99.90;;;;;;5011146;28;19913;-77
2023/02/03 10:35:15;;;;;;;;;;;9.40;99.90;;;;;;5006571;28;20331;-76
2023/02/03 10:37:44;;;;;;;;;;;9.40;99.90;;;;;;5020548;28;19906;-76
2023/02/03 10:40:11;;;;;;;;;;;9.30;99.90;;;;;;5012961;28;19921;-74
2023/02/03 10:45:22;;;;;;;;;;;9.30;99.90;;;;;;5012037;28;19909;-76
2023/02/03 10:47:53;;;;;;;;;;;9.30;99.90;;;;;;5001124;28;20342;-76
2023/02/03 10:50:30;;;;;;;;;;;9.30;99.90;;;;;;5016144;28;19916;-76
2023/02/03 10:53:34;;;;;;;;;;;9.30;99.90;;;;;;5017053;28;19924;-78
2023/02/03 10:56:00;;;;;;;;;;;9.40;99.90;;;;;;4974180;28;19910;-78
2023/02/03 10:58:28;;;;;;;;;;;9.50;99.90;;;;;;4997901;28;19913;-79
2023/02/03 11:00:55;;;;;;;;;;;9.40;99.90;;;;;;4981258;28;20315;-81
2023/02/03 11:03:24;;;;;;;;;;;9.50;99.90;;;;;;4995353;28;19927;-77
2023/02/03 11:06:25;;;;;;;;;;;9.50;99.90;;;;;;4992669;28;20013;-74
2023/02/03 11:08:51;;;;;;;;;;;9.50;99.90;;;;;;4912857;29;19918;-76
2023/02/03 11:11:23;;;;;;;;;;;9.40;99.90;;;;;;4978504;28;19921;-76
2023/02/03 11:14:12;;;;;;;;;;;9.50;99.90;;;;;;4994095;28;19910;-77
2023/02/03 11:16:38;;;;;;;;;;;9.40;99.90;;;;;;4983559;28;19910;-79
2023/02/03 11:19:06;;;;;;;;;;;9.50;99.90;;;;;;4992371;28;19912;-78
2023/02/03 11:21:39;;;;;;;;;;;9.50;99.90;;;;;;4976703;28;20060;-76
2023/02/03 11:24:05;;;;;;;;;;;9.50;99.90;;;;;;4985640;28;19914;-76
2023/02/03 11:26:33;;;;;;;;;;;9.40;99.90;;;;;;4998727;28;19909;-76
2023/02/03 11:29:00;;;;;;;;;;;9.50;99.90;;;;;;5008598;28;19912;-74
2023/02/03 11:31:36;;;;;;;;;;;9.50;99.90;;;;;;5011718;28;19932;-75
2023/02/03 11:34:13;;;;;;;;;;;9.40;99.90;;;;;;5009044;28;20389;-75
2023/02/03 11:36:39;;;;;;;;;;;9.40;99.90;;;;;;5009585;28;19916;-75
2023/02/03 11:39:25;;;;;;;;;;;9.40;99.90;;;;;;5010182;28;19945;-76
2023/02/03 11:41:52;;;;;;;;;;;9.40;99.90;;;;;;5007769;28;19924;-77
2023/02/03 11:44:22;;;;;;;;;;;9.40;99.90;;;;;;5023486;28;19909;-75
2023/02/03 11:46:51;;;;;;;;;;;9.40;99.90;;;;;;5008661;28;20255;-75
2023/02/03 11:49:25;;;;;;;;;;;9.40;99.90;;;;;;5008578;28;19921;-75
2023/02/03 11:51:59;;;;;;;;;;;9.40;99.90;;;;;;5011878;28;19916;-76
2023/02/03 11:54:31;;;;;;;;;;;9.40;99.90;;;;;;5010949;28;19914;-82
2023/02/03 11:57:18;;;;;;;;;;;9.30;99.90;;;;;;5011922;28;20277;-76
2023/02/03 11:59:59;;;;;;;;;;;9.40;99.90;;;;;;5010101;28;20252;-75
2023/02/03 12:02:54;;;;;;;;;;;9.30;99.90;;;;;;5011118;28;19918;-76
2023/02/03 12:05:29;;;;;;;;;;;9.30;99.90;;;;;;5010101;28;19913;-75
2023/02/03 12:08:22;;;;;;;;;;;9.30;99.90;;;;;;5010585;28;20246;-76
2023/02/03 12:10:48;;;;;;;;;;;9.30;99.90;;;;;;5005025;28;19917;-75
2023/02/03 12:13:22;;;;;;;;;;;9.40;99.90;;;;;;5011866;28;19910;-74
2023/02/03 12:15:55;;;;;;;;;;;9.40;99.90;;;;;;5006732;28;19916;-77
2023/02/03 12:18:24;;;;;;;;;;;9.40;99.90;;;;;;5010896;28;19909;-76
2023/02/03 12:20:50;;;;;;;;;;;9.40;99.90;;;;;;5010923;28;19917;-73
2023/02/03 12:23:29;;;;;;;;;;;9.40;99.90;;;;;;5008540;28;19929;-75
2023/02/03 12:26:14;;;;;;;;;;;9.30;99.90;;;;;;5008976;28;19910;-77
2023/02/03 12:28:44;;;;;;;;;;;9.30;99.90;;;;;;5000118;28;19920;-73
2023/02/03 12:31:14;;;;;;;;;;;9.30;99.90;;;;;;5009945;28;19906;-79
2023/02/03 12:33:49;;;;;;;;;;;9.30;99.90;;;;;;5010688;28;20363;-76
2023/02/03 12:36:21;;;;;;;;;;;9.30;99.90;;;;;;5006427;28;19909;-78
2023/02/03 12:38:47;;;;;;;;;;;9.20;99.90;;;;;;5014137;28;19913;-79
2023/02/03 12:41:14;;;;;;;;;;;9.30;99.90;;;;;;5009814;28;19906;-77
2023/02/03 12:43:49;;;;;;;;;;;9.30;99.90;;;;;;5009537;28;19940;-79
2023/02/03 12:46:18;;;;;;;;;;;9.30;99.90;;;;;;5005940;28;19909;-80
2023/02/03 12:48:49;;;;;;;;;;;9.30;99.90;;;;;;5006293;28;19916;-77
2023/02/03 12:51:22;;;;;;;;;;;9.40;99.90;;;;;;5007314;28;20381;-77
2023/02/03 12:53:51;;;;;;;;;;;9.40;99.90;;;;;;5007719;28;20392;-76
2023/02/03 12:56:23;;;;;;;;;;;9.40;99.90;;;;;;5005085;28;20390;-77
2023/02/03 12:58:53;;;;;;;;;;;9.50;99.90;;;;;;5007148;28;19910;-78
2023/02/03 13:01:21;;;;;;;;;;;9.50;99.90;;;;;;5008350;28;19917;-76
2023/02/03 13:03:54;;;;;;;;;;;9.50;99.90;;;;;;5010724;28;19928;-81
2023/02/03 13:06:39;;;;;;;;;;;9.50;99.90;;;;;;5009258;28;20398;-75
2023/02/03 13:09:24;;;;;;;;;;;9.50;99.90;;;;;;5004944;28;20280;-79
2023/02/03 13:11:50;;;;;;;;;;;9.50;99.90;;;;;;5011116;28;19909;-83
2023/02/03 13:14:19;;;;;;;;;;;9.50;99.90;;;;;;5010863;28;19913;-75
2023/02/03 13:16:48;;;;;;;;;;;9.50;99.90;;;;;;5008785;28;19917;-76
2023/02/03 13:19:17;;;;;;;;;;;9.40;99.90;;;;;;5008690;28;19909;-78
2023/02/03 13:21:45;;;;;;;;;;;9.40;99.90;;;;;;5008421;28;19916;-78
2023/02/03 13:24:12;;;;;;;;;;;9.30;99.90;;;;;;5009993;28;19913;-76
2023/02/03 13:26:56;;;;;;;;;;;9.40;99.90;;;;;;5010121;28;19906;-78
2023/02/03 13:29:22;;;;;;;;;;;9.40;99.90;;;;;;5007929;28;19910;-80
2023/02/03 13:31:48;;;;;;;;;;;9.40;99.90;;;;;;5011030;28;19940;-80
2023/02/03 13:34:14;;;;;;;;;;;9.40;99.90;;;;;;5007322;28;19916;-78
2023/02/03 13:36:40;;;;;;;;;;;9.40;99.90;;;;;;5011172;28;20353;-82
2023/02/03 13:39:09;;;;;;;;;;;9.40;99.90;;;;;;5007889;28;19921;-81
2023/02/03 13:41:39;;;;;;;;;;;9.40;99.90;;;;;;5013124;28;19913;-78
2023/02/03 13:44:11;;;;;;;;;;;9.40;99.90;;;;;;4999024;28;19920;-79
2023/02/03 13:46:38;;;;;;;;;;;9.30;99.90;;;;;;5004030;28;20347;-76
2023/02/03 13:49:05;;;;;;;;;;;9.40;99.90;;;;;;5007683;28;19910;-81
2023/02/03 13:51:34;;;;;;;;;;;9.30;99.90;;;;;;5009729;28;19977;-77
2023/02/03 13:54:04;;;;;;;;;;;9.30;99.90;;;;;;5011352;28;19913;-78
2023/02/03 13:56:32;;;;;;;;;;;9.30;99.90;;;;;;5002436;28;19964;-78
2023/02/03 13:59:00;;;;;;;;;;;9.30;99.90;;;;;;5008249;28;19918;-80
2023/02/03 14:01:32;;;;;;;;;;;9.30;99.90;;;;;;5009569;28;19928;-79
2023/02/03 14:03:59;;;;;;;;;;;9.30;99.90;;;;;;5001667;28;19917;-77
2023/02/03 14:06:37;;;;;;;;;;;9.30;99.90;;;;;;4986637;28;19906;-90
2023/02/03 14:09:23;;;;;;;;;;;9.30;99.90;;;;;;5005462;28;19909;-76
2023/02/03 14:11:50;;;;;;;;;;;9.30;99.90;;;;;;5008967;28;19933;-78
2023/02/03 14:14:16;;;;;;;;;;;9.30;99.90;;;;;;5013768;28;19913;-76
2023/02/03 14:16:43;;;;;;;;;;;9.30;99.90;;;;;;5010470;28;20458;-76
2023/02/03 14:19:10;;;;;;;;;;;9.40;99.90;;;;;;5014390;28;19921;-74
2023/02/03 14:21:47;;;;;;;;;;;9.40;99.90;;;;;;5010507;28;19914;-73
2023/02/03 14:24:13;;;;;;;;;;;9.40;99.90;;;;;;5010966;28;20378;-74
2023/02/03 14:26:43;;;;;;;;;;;9.40;99.90;;;;;;5015028;28;19913;-77
2023/02/03 14:29:21;;;;;;;;;;;9.50;99.90;;;;;;5007307;28;20232;-74
2023/02/03 14:31:51;;;;;;;;;;;9.50;99.90;;;;;;5013001;28;19916;-74
2023/02/03 14:34:18;;;;;;;;;;;9.50;99.90;;;;;;5011496;28;19916;-82
2023/02/03 14:36:49;;;;;;;;;;;9.50;99.90;;;;;;5014181;28;20282;-83
2023/02/03 14:39:21;;;;;;;;;;;9.50;99.90;;;;;;5002491;28;19909;-86
2023/02/03 14:42:07;;;;;;;;;;;9.50;99.90;;;;;;5015609;28;19909;-80
2023/02/03 14:44:39;;;;;;;;;;;9.50;99.90;;;;;;5008818;28;19932;-83
2023/02/03 14:47:24;;;;;;;;;;;9.50;99.90;;;;;;5015025;28;19909;-87
2023/02/03 14:50:08;;;;;;;;;;;9.50;99.90;;;;;;5011118;28;19910;-79
2023/02/03 14:52:52;;;;;;;;;;;9.50;99.90;;;;;;5014915;28;20332;-78
2023/02/03 14:55:27;;;;;;;;;;;9.60;99.90;;;;;;5009263;28;19928;-77